Grande Italia — IBTF — position and weather

sailwx.info

Track history (hours):
 
Tides and Currents Weather Stations Pressure Air Temp Water Temp Dewpoint Dewpoint Depression Visibility Wind Speed Wind Dir Waves Ship Positions

Grande Italia

Last reported at 2015-Jul-04 20:33 UTC. Time now 2015-Jul-04 20:41 UTC.
Position N 51°26' W 002°60'.

Length 177 m; draft 8.7 m.

Type: Ship. MMSI: 247039300.

Date/timePositionNaut miles runAvg speedWind from/ knotsBaromVisibWave heightAir tempDewpointWater temp
2015-Jul-04 20:33N 51°26' W 002°60'8513.3
2015-Jul-04 14:09N 50°50' W 005°03'914.8
2015-Jul-04 13:33N 50°44' W 005°13'1414.4
2015-Jul-04 12:33N 50°34' W 005°29'1413.7
2015-Jul-04 11:33N 50°25' W 005°45'63315.3
2015-Jul-02 18:15N 40°16' W 009°51'1115.5
2015-Jul-02 17:33N 40°06' W 009°52'1615.7
2015-Jul-02 16:33N 39°50' W 009°52'1615.5
2015-Jul-02 15:30N 39°34' W 009°51'1515.5
2015-Jul-02 14:33N 39°19' W 009°51'1515.4
2015-Jul-02 13:33N 39°03' W 009°50'1615.7
2015-Jul-02 12:33N 38°48' W 009°51'1515.3
2015-Jul-02 11:33N 38°32' W 009°48'1515.3
2015-Jul-02 10:33N 38°18' W 009°44'1515.1
2015-Jul-02 09:33N 38°03' W 009°40'1515.4
2015-Jul-02 08:33N 37°48' W 009°36'1515.1
2015-Jul-02 07:33N 37°33' W 009°31'1815.3
2015-Jul-02 06:22N 37°16' W 009°26'1314.9
2015-Jul-02 05:30N 37°03' W 009°22'1414.3
2015-Jul-02 04:30N 36°50' W 009°16'1714.3
2015-Jul-02 03:20N 36°41' W 008°58'1114.7
2015-Jul-02 02:33N 36°38' W 008°44'3014.8
2015-Jul-02 00:31N 36°28' W 008°09'1414.9
2015-Jul-01 23:33N 36°23' W 007°52'4515.0
2015-Jul-01 20:32N 36°09' W 006°59'1615.0
2015-Jul-01 19:29N 36°04' W 006°40'5413.7
2015-Jul-01 15:33N 35°58' W 005°34'1312.6
2015-Jul-01 14:33N 36°02' W 005°19'11514.3
2015-Jul-01 06:34N 36°20' W 002°59'1515.5
2015-Jul-01 05:34N 36°22' W 002°40'1616.2
2015-Jul-01 04:34N 36°25' W 002°20'1615.5
2015-Jul-01 03:34N 36°32' W 002°03'1716.5
2015-Jul-01 02:33N 36°43' W 001°47'1816.6
2015-Jul-01 01:29N 36°55' W 001°30'1516.3
2015-Jul-01 00:33N 37°04' W 001°16'1716.5
2015-Jun-30 23:32N 37°15' W 000°60'1616.5
2015-Jun-30 22:34N 37°26' W 000°45'1616.4
2015-Jun-30 21:34N 37°38' W 000°30'1615.9
2015-Jun-30 20:34N 37°51' W 000°19'1616.2
2015-Jun-30 19:33N 38°05' W 000°08'1616.0
2015-Jun-30 18:33N 38°18' E 000°03'1515.5
2015-Jun-30 17:33N 38°31' E 000°13'1515.4
2015-Jun-30 16:33N 38°45' E 000°23'4515.0
2015-Jun-30 13:33N 39°21' W 000°11'8 7.4
2015-Jun-30 12:32N 39°26' W 000°18'0 0.0
2015-Jun-30 11:32N 39°26' W 000°18'0 0.0
2015-Jun-30 10:32N 39°26' W 000°18'0 0.0
2015-Jun-30 09:32N 39°26' W 000°18'0 0.0
2015-Jun-30 08:32N 39°26' W 000°18'0 0.0
2015-Jun-30 07:32N 39°26' W 000°18'0 0.0
2015-Jun-30 06:32N 39°26' W 000°18'0 0.0
2015-Jun-30 05:32N 39°26' W 000°18'0 0.0
2015-Jun-30 04:32N 39°26' W 000°18'0 0.0
2015-Jun-30 03:33N 39°26' W 000°18'5 5.4
2015-Jun-30 02:33N 39°24' W 000°12'4714.9
2015-Jun-29 23:24N 39°17' E 000°48'1314.8
2015-Jun-29 22:33N 39°15' E 001°04'1515.1
2015-Jun-29 21:33N 39°13' E 001°24'1515.1
2015-Jun-29 20:33N 39°11' E 001°43'1515.4
2015-Jun-29 19:33N 39°08' E 002°02'1515.4
2015-Jun-29 18:34N 39°05' E 002°22'1515.4
2015-Jun-29 17:33N 39°03' E 002°42'1515.5
2015-Jun-29 16:33N 39°01' E 003°01'1515.4
2015-Jun-29 15:33N 39°00' E 003°21'1514.9
2015-Jun-29 14:33N 38°59' E 003°40'1515.4
2015-Jun-29 13:33N 38°57' E 003°60'1615.6
2015-Jun-29 12:32N 38°56' E 004°20'1815.6
2015-Jun-29 11:25N 38°55' E 004°43'15115.3
2015-Jun-29 01:31N 38°44' E 007°56'3215.2
2015-Jun-28 23:26N 38°42' E 008°37'1415.7
2015-Jun-28 22:33N 38°41' E 008°55'1616.2
2015-Jun-28 21:33N 38°47' E 009°14'1616.4
2015-Jun-28 20:33N 38°52' E 009°34'1716.2
2015-Jun-28 19:29N 38°59' E 009°55'3516.1
2015-Jun-28 17:20N 39°13' E 010°35'4315.6
2015-Jun-28 14:33N 39°31' E 011°27'2015.3
2015-Jun-28 13:13N 39°39' E 011°51'1515.0
2015-Jun-28 12:12N 39°45' E 012°09'1415.2
2015-Jun-28 11:18N 39°51' E 012°25'1115.5
2015-Jun-28 10:33N 39°55' E 012°39'1615.5
2015-Jun-28 09:33N 40°01' E 012°58'1615.7
2015-Jun-28 08:33N 40°07' E 013°17'1615.6
2015-Jun-28 07:33N 40°13' E 013°36'1615.4
2015-Jun-28 06:29N 40°20' E 013°55'1415.3
2015-Jun-28 05:34N 40°26' E 014°12'1615.2
2015-Jun-28 04:32N 40°33' E 014°31'10 0.9
2015-Jun-27 18:11N 40°31' E 014°43'812.0
2015-Jun-27 17:34N 40°24' E 014°43'1515.5
2015-Jun-27 16:34N 40°08' E 014°47'9515.9
2015-Jun-27 10:33N 38°40' E 015°32'1717.2
2015-Jun-27 09:33N 38°24' E 015°40'1313.3
2015-Jun-27 08:33N 38°11' E 015°37'1313.0
2015-Jun-27 07:33N 37°58' E 015°37'1413.6
2015-Jun-27 06:30N 37°50' E 015°53'1616.4
2015-Jun-27 05:29N 37°45' E 016°13'35015.2
2015-Jun-26 06:29N 36°33' E 023°22'34715.1
2015-Jun-25 07:33N 40°45' E 028°26'1414.2
2015-Jun-25 06:33N 40°41' E 028°44'  
Track history (hours):
 
Tides and Currents Weather Stations Pressure Air Temp Water Temp Dewpoint Dewpoint Depression Visibility Wind Speed Wind Dir Waves Ship Positions

Grande Italia

Last reported at 2015-Jul-04 20:33 UTC. Time now 2015-Jul-04 20:41 UTC.
Position N 51°26' W 002°60'.

Length 177 m; draft 8.7 m.

Type: Ship. MMSI: 247039300.

Date/timePositionNaut miles runAvg speedWind from/ knotsBaromVisibWave heightAir tempDewpointWater temp
2015-Jul-04 20:33N 51°26' W 002°60'8513.3
2015-Jul-04 14:09N 50°50' W 005°03'914.8
2015-Jul-04 13:33N 50°44' W 005°13'1414.4
2015-Jul-04 12:33N 50°34' W 005°29'1413.7
2015-Jul-04 11:33N 50°25' W 005°45'63315.3
2015-Jul-02 18:15N 40°16' W 009°51'1115.5
2015-Jul-02 17:33N 40°06' W 009°52'1615.7
2015-Jul-02 16:33N 39°50' W 009°52'1615.5
2015-Jul-02 15:30N 39°34' W 009°51'1515.5
2015-Jul-02 14:33N 39°19' W 009°51'1515.4
2015-Jul-02 13:33N 39°03' W 009°50'1615.7
2015-Jul-02 12:33N 38°48' W 009°51'1515.3
2015-Jul-02 11:33N 38°32' W 009°48'1515.3
2015-Jul-02 10:33N 38°18' W 009°44'1515.1
2015-Jul-02 09:33N 38°03' W 009°40'1515.4
2015-Jul-02 08:33N 37°48' W 009°36'1515.1
2015-Jul-02 07:33N 37°33' W 009°31'1815.3
2015-Jul-02 06:22N 37°16' W 009°26'1314.9
2015-Jul-02 05:30N 37°03' W 009°22'1414.3
2015-Jul-02 04:30N 36°50' W 009°16'1714.3
2015-Jul-02 03:20N 36°41' W 008°58'1114.7
2015-Jul-02 02:33N 36°38' W 008°44'3014.8
2015-Jul-02 00:31N 36°28' W 008°09'1414.9
2015-Jul-01 23:33N 36°23' W 007°52'4515.0
2015-Jul-01 20:32N 36°09' W 006°59'1615.0
2015-Jul-01 19:29N 36°04' W 006°40'5413.7
2015-Jul-01 15:33N 35°58' W 005°34'1312.6
2015-Jul-01 14:33N 36°02' W 005°19'11514.3
2015-Jul-01 06:34N 36°20' W 002°59'1515.5
2015-Jul-01 05:34N 36°22' W 002°40'1616.2
2015-Jul-01 04:34N 36°25' W 002°20'1615.5
2015-Jul-01 03:34N 36°32' W 002°03'1716.5
2015-Jul-01 02:33N 36°43' W 001°47'1816.6
2015-Jul-01 01:29N 36°55' W 001°30'1516.3
2015-Jul-01 00:33N 37°04' W 001°16'1716.5
2015-Jun-30 23:32N 37°15' W 000°60'1616.5
2015-Jun-30 22:34N 37°26' W 000°45'1616.4
2015-Jun-30 21:34N 37°38' W 000°30'1615.9
2015-Jun-30 20:34N 37°51' W 000°19'1616.2
2015-Jun-30 19:33N 38°05' W 000°08'1616.0
2015-Jun-30 18:33N 38°18' E 000°03'1515.5
2015-Jun-30 17:33N 38°31' E 000°13'1515.4
2015-Jun-30 16:33N 38°45' E 000°23'4515.0
2015-Jun-30 13:33N 39°21' W 000°11'8 7.4
2015-Jun-30 12:32N 39°26' W 000°18'0 0.0
2015-Jun-30 11:32N 39°26' W 000°18'0 0.0
2015-Jun-30 10:32N 39°26' W 000°18'0 0.0
2015-Jun-30 09:32N 39°26' W 000°18'0 0.0
2015-Jun-30 08:32N 39°26' W 000°18'0 0.0
2015-Jun-30 07:32N 39°26' W 000°18'0 0.0
2015-Jun-30 06:32N 39°26' W 000°18'0 0.0
2015-Jun-30 05:32N 39°26' W 000°18'0 0.0
2015-Jun-30 04:32N 39°26' W 000°18'0 0.0
2015-Jun-30 03:33N 39°26' W 000°18'5 5.4
2015-Jun-30 02:33N 39°24' W 000°12'4714.9
2015-Jun-29 23:24N 39°17' E 000°48'1314.8
2015-Jun-29 22:33N 39°15' E 001°04'1515.1
2015-Jun-29 21:33N 39°13' E 001°24'1515.1
2015-Jun-29 20:33N 39°11' E 001°43'1515.4
2015-Jun-29 19:33N 39°08' E 002°02'1515.4
2015-Jun-29 18:34N 39°05' E 002°22'1515.4
2015-Jun-29 17:33N 39°03' E 002°42'1515.5
2015-Jun-29 16:33N 39°01' E 003°01'1515.4
2015-Jun-29 15:33N 39°00' E 003°21'1514.9
2015-Jun-29 14:33N 38°59' E 003°40'1515.4
2015-Jun-29 13:33N 38°57' E 003°60'1615.6
2015-Jun-29 12:32N 38°56' E 004°20'1815.6
2015-Jun-29 11:25N 38°55' E 004°43'15115.3
2015-Jun-29 01:31N 38°44' E 007°56'3215.2
2015-Jun-28 23:26N 38°42' E 008°37'1415.7
2015-Jun-28 22:33N 38°41' E 008°55'1616.2
2015-Jun-28 21:33N 38°47' E 009°14'1616.4
2015-Jun-28 20:33N 38°52' E 009°34'1716.2
2015-Jun-28 19:29N 38°59' E 009°55'3516.1
2015-Jun-28 17:20N 39°13' E 010°35'4315.6
2015-Jun-28 14:33N 39°31' E 011°27'2015.3
2015-Jun-28 13:13N 39°39' E 011°51'1515.0
2015-Jun-28 12:12N 39°45' E 012°09'1415.2
2015-Jun-28 11:18N 39°51' E 012°25'1115.5
2015-Jun-28 10:33N 39°55' E 012°39'1615.5
2015-Jun-28 09:33N 40°01' E 012°58'1615.7
2015-Jun-28 08:33N 40°07' E 013°17'1615.6
2015-Jun-28 07:33N 40°13' E 013°36'1615.4
2015-Jun-28 06:29N 40°20' E 013°55'1415.3
2015-Jun-28 05:34N 40°26' E 014°12'1615.2
2015-Jun-28 04:32N 40°33' E 014°31'10 0.9
2015-Jun-27 18:11N 40°31' E 014°43'812.0
2015-Jun-27 17:34N 40°24' E 014°43'1515.5
2015-Jun-27 16:34N 40°08' E 014°47'9515.9
2015-Jun-27 10:33N 38°40' E 015°32'1717.2
2015-Jun-27 09:33N 38°24' E 015°40'1313.3
2015-Jun-27 08:33N 38°11' E 015°37'1313.0
2015-Jun-27 07:33N 37°58' E 015°37'1413.6
2015-Jun-27 06:30N 37°50' E 015°53'1616.4
2015-Jun-27 05:29N 37°45' E 016°13'35015.2
2015-Jun-26 06:29N 36°33' E 023°22'34715.1
2015-Jun-25 07:33N 40°45' E 028°26'1414.2
2015-Jun-25 06:33N 40°41' E 028°44'  

Dump ship's entire track history